Time;durP1;ratioP1;P1;durP2;ratioP2;P2;SDS_P1;SDS_P2;PMS_P1;PMS_P2;Temp;Humidity;BMP_temperature;BMP_pressure;BME280_temperature;BME280_humidity;BME280_pressure;Samples;Min_cycle;Max_cycle;Signal;HPM_P1;HPM_P2
2022/03/26 00:02:23;;;;;;;51.67;24.33;;;6.20;79.80;;;;;;5011327;28;20450;-79
2022/03/26 00:04:49;;;;;;;53.43;21.97;;;6.10;80.10;;;;;;5011648;28;20026;-79
2022/03/26 00:07:15;;;;;;;52.83;22.33;;;6.00;80.30;;;;;;5011176;28;20022;-79
2022/03/26 00:09:40;;;;;;;53.33;23.47;;;6.10;80.30;;;;;;5023302;22;20046;-77
2022/03/26 00:12:08;;;;;;;49.50;23.20;;;6.00;80.20;;;;;;5011654;28;20487;-76
2022/03/26 00:14:34;;;;;;;48.23;22.33;;;6.00;80.50;;;;;;5011510;28;20029;-76
2022/03/26 00:17:00;;;;;;;52.43;22.33;;;5.90;81.00;;;;;;5011630;28;20168;-77
2022/03/26 00:19:26;;;;;;;57.07;22.37;;;5.90;81.30;;;;;;5011570;28;20363;-78
2022/03/26 00:21:52;;;;;;;59.83;23.67;;;5.80;81.10;;;;;;5011067;28;20029;-76
2022/03/26 00:24:18;;;;;;;51.17;22.50;;;5.90;81.40;;;;;;5011004;28;20378;-76
2022/03/26 00:26:43;;;;;;;46.47;21.13;;;5.70;81.10;;;;;;5011455;28;20069;-76
2022/03/26 00:29:09;;;;;;;53.13;22.47;;;5.60;82.10;;;;;;5010474;28;20025;-77
2022/03/26 00:31:37;;;;;;;50.30;21.93;;;5.40;83.20;;;;;;5007878;28;20021;-77
2022/03/26 00:34:04;;;;;;;54.60;23.10;;;5.30;84.20;;;;;;5010705;28;20042;-77
2022/03/26 00:36:30;;;;;;;48.73;21.83;;;5.20;84.30;;;;;;5002690;28;20032;-77
2022/03/26 00:38:56;;;;;;;57.07;23.77;;;5.20;84.60;;;;;;5010705;28;20030;-77
2022/03/26 00:41:23;;;;;;;53.00;23.30;;;5.10;84.80;;;;;;5011065;28;20096;-76
2022/03/26 00:43:49;;;;;;;58.30;24.50;;;5.10;84.50;;;;;;5011473;28;20030;-76
2022/03/26 00:46:15;;;;;;;52.93;23.27;;;5.10;84.60;;;;;;5011032;28;20030;-76
2022/03/26 00:48:41;;;;;;;51.80;24.07;;;4.90;85.30;;;;;;5010891;28;20060;-77
2022/03/26 00:51:07;;;;;;;52.33;23.57;;;4.80;85.00;;;;;;5011048;28;20053;-76
2022/03/26 00:53:32;;;;;;;57.07;25.60;;;4.70;87.30;;;;;;5010702;28;20040;-76
2022/03/26 00:55:58;;;;;;;56.00;24.23;;;4.60;88.20;;;;;;5010745;28;20030;-76
2022/03/26 00:58:24;;;;;;;55.37;24.60;;;4.50;87.60;;;;;;5011107;28;20459;-77
2022/03/26 01:00:50;;;;;;;60.87;25.83;;;4.50;89.00;;;;;;5010235;28;20030;-76
2022/03/26 01:03:18;;;;;;;53.23;24.37;;;4.50;89.60;;;;;;5012292;28;20463;-76
2022/03/26 01:05:44;;;;;;;57.40;25.20;;;4.70;89.10;;;;;;5015114;28;20506;-77
2022/03/26 01:10:38;;;;;;;65.73;26.60;;;4.60;88.90;;;;;;4975797;28;20093;-79
2022/03/26 01:13:04;;;;;;;59.67;25.03;;;4.60;89.20;;;;;;4975557;28;20034;-79
2022/03/26 01:15:30;;;;;;;68.83;26.90;;;4.50;87.90;;;;;;4974988;28;20114;-79
2022/03/26 01:17:55;;;;;;;66.67;27.50;;;4.50;90.10;;;;;;4975368;28;20019;-79
2022/03/26 01:20:22;;;;;;;64.87;27.60;;;4.50;90.00;;;;;;4958438;28;20375;-79
2022/03/26 01:22:47;;;;;;;64.63;27.63;;;4.50;89.40;;;;;;4975369;28;20019;-80
2022/03/26 01:25:13;;;;;;;66.00;27.90;;;4.60;90.00;;;;;;4975217;28;20530;-79
2022/03/26 01:27:39;;;;;;;72.23;30.17;;;4.70;90.10;;;;;;4975698;28;20507;-79
2022/03/26 01:30:06;;;;;;;73.40;28.27;;;4.80;89.50;;;;;;4975142;28;20050;-79
2022/03/26 01:32:32;;;;;;;65.90;27.53;;;5.00;88.70;;;;;;4974929;28;20027;-79
2022/03/26 01:34:58;;;;;;;69.57;27.40;;;4.90;87.40;;;;;;4975214;28;20031;-79
2022/03/26 01:37:24;;;;;;;66.20;26.17;;;4.90;88.00;;;;;;4975158;28;20015;-79
2022/03/26 01:39:51;;;;;;;68.90;27.33;;;4.90;88.70;;;;;;4976924;28;20066;-79
2022/03/26 01:42:17;;;;;;;76.97;30.27;;;4.90;89.00;;;;;;4975374;28;20019;-80
2022/03/26 01:44:43;;;;;;;68.80;27.73;;;4.90;88.50;;;;;;4975645;28;20042;-79
2022/03/26 01:47:09;;;;;;;71.97;29.07;;;4.90;88.00;;;;;;4974917;28;20467;-79
2022/03/26 01:49:35;;;;;;;64.83;28.87;;;5.00;88.30;;;;;;4975207;28;20143;-79
2022/03/26 01:52:03;;;;;;;66.97;27.50;;;5.10;87.40;;;;;;4975173;28;20023;-79
2022/03/26 01:54:30;;;;;;;66.67;28.07;;;5.00;87.30;;;;;;4974738;28;20027;-79
2022/03/26 01:56:56;;;;;;;72.50;27.17;;;5.10;86.70;;;;;;4974633;28;20081;-79
2022/03/26 01:59:26;;;;;;;73.30;27.60;;;5.00;88.30;;;;;;4974792;28;20027;-79
2022/03/26 02:01:52;;;;;;;69.37;28.87;;;4.90;87.60;;;;;;4973804;28;20026;-77
2022/03/26 02:04:18;;;;;;;72.87;28.97;;;4.90;88.10;;;;;;4974528;28;20066;-79
2022/03/26 02:06:44;;;;;;;70.80;30.37;;;4.90;89.90;;;;;;4956619;28;20031;-80
2022/03/26 02:09:12;;;;;;;69.57;27.47;;;4.80;89.60;;;;;;4996349;22;20042;-78
2022/03/26 02:11:40;;;;;;;66.77;28.03;;;4.70;89.30;;;;;;5002590;28;20747;-77
2022/03/26 02:14:08;;;;;;;70.40;29.43;;;4.80;89.70;;;;;;4990185;28;20038;-77
2022/03/26 02:16:36;;;;;;;60.33;26.83;;;4.80;89.80;;;;;;4994284;28;20046;-77
2022/03/26 02:19:04;;;;;;;73.03;31.03;;;4.80;90.00;;;;;;4993927;28;20065;-76
2022/03/26 02:21:31;;;;;;;60.27;25.10;;;4.70;90.10;;;;;;4993711;28;20027;-77
2022/03/26 02:23:57;;;;;;;66.77;28.97;;;4.70;89.10;;;;;;4993834;28;20034;-76
2022/03/26 02:26:27;;;;;;;66.10;26.10;;;4.70;90.70;;;;;;4993241;28;20745;-77
2022/03/26 02:28:54;;;;;;;75.50;27.33;;;4.70;90.00;;;;;;4993757;28;20026;-77
2022/03/26 02:31:21;;;;;;;68.80;26.73;;;4.70;90.60;;;;;;4981702;28;20387;-77
2022/03/26 02:33:47;;;;;;;65.00;28.23;;;4.70;90.60;;;;;;5003440;28;20496;-76
2022/03/26 02:36:12;;;;;;;63.33;25.87;;;4.60;90.00;;;;;;5002247;28;20026;-76
2022/03/26 02:38:39;;;;;;;61.90;26.43;;;4.60;90.50;;;;;;4998542;28;20049;-76
2022/03/26 02:41:05;;;;;;;69.60;27.97;;;4.50;90.20;;;;;;5002896;28;20029;-76
2022/03/26 02:43:31;;;;;;;65.73;27.60;;;4.40;90.00;;;;;;5002704;28;20058;-76
2022/03/26 02:45:57;;;;;;;64.33;26.63;;;4.30;89.70;;;;;;5000341;28;21045;-76
2022/03/26 02:48:23;;;;;;;63.23;26.27;;;4.30;90.20;;;;;;4996864;28;20045;-75
2022/03/26 02:50:49;;;;;;;65.80;26.47;;;4.20;90.90;;;;;;5001809;28;20041;-76
2022/03/26 02:53:15;;;;;;;68.27;26.50;;;4.20;91.30;;;;;;5001392;28;20471;-77
2022/03/26 02:55:41;;;;;;;67.97;27.30;;;4.10;91.10;;;;;;5000731;28;20058;-77
2022/03/26 02:58:08;;;;;;;66.53;26.40;;;4.10;91.20;;;;;;4999024;28;20470;-77
2022/03/26 03:00:35;;;;;;;64.00;25.60;;;4.00;91.00;;;;;;5000531;28;20549;-76
2022/03/26 03:03:01;;;;;;;61.90;26.47;;;3.90;91.30;;;;;;5002777;28;20022;-77
2022/03/26 03:05:27;;;;;;;65.03;24.40;;;4.00;91.60;;;;;;4999723;28;20072;-77
2022/03/26 03:07:53;;;;;;;69.23;27.20;;;3.90;91.70;;;;;;5001350;28;20029;-77
2022/03/26 03:10:20;;;;;;;63.47;26.17;;;3.80;91.00;;;;;;5021528;22;20042;-77
2022/03/26 03:12:47;;;;;;;67.23;25.40;;;3.70;91.00;;;;;;5012040;28;20037;-77
2022/03/26 03:15:15;;;;;;;69.00;26.80;;;3.70;91.60;;;;;;5011351;28;20113;-77
2022/03/26 03:17:41;;;;;;;70.70;26.93;;;3.60;91.50;;;;;;5010934;28;20026;-77
2022/03/26 03:20:09;;;;;;;72.00;26.77;;;3.60;91.90;;;;;;5011924;28;20026;-78
2022/03/26 03:22:36;;;;;;;64.57;24.10;;;3.40;91.40;;;;;;5011208;28;20049;-77
2022/03/26 03:25:03;;;;;;;67.07;28.00;;;3.50;92.20;;;;;;5010523;28;20048;-76
2022/03/26 03:27:29;;;;;;;59.30;25.87;;;3.50;91.90;;;;;;5011155;28;20037;-77
2022/03/26 03:29:54;;;;;;;67.57;26.13;;;3.40;92.30;;;;;;5010987;28;20022;-80
2022/03/26 03:32:20;;;;;;;72.87;28.60;;;3.40;92.40;;;;;;5010923;28;20068;-77
2022/03/26 03:34:46;;;;;;;59.00;25.10;;;3.30;93.00;;;;;;5011766;28;20037;-77
2022/03/26 03:37:12;;;;;;;73.53;26.60;;;3.30;92.80;;;;;;5011054;28;20068;-77
2022/03/26 03:39:37;;;;;;;66.83;25.50;;;3.30;93.00;;;;;;5011403;28;20045;-79
2022/03/26 03:42:04;;;;;;;63.83;25.40;;;3.30;93.20;;;;;;5012393;28;20065;-77
2022/03/26 03:44:30;;;;;;;60.03;24.97;;;3.20;93.20;;;;;;5011889;28;20025;-77
2022/03/26 03:46:56;;;;;;;65.80;23.40;;;3.10;93.20;;;;;;5011772;28;20021;-77
2022/03/26 03:49:22;;;;;;;66.97;25.63;;;3.10;93.30;;;;;;5011325;28;20021;-77
2022/03/26 03:51:48;;;;;;;69.03;27.40;;;3.00;93.50;;;;;;4992738;28;20037;-76
2022/03/26 03:54:14;;;;;;;70.27;26.93;;;3.10;93.40;;;;;;5009393;28;20034;-79
2022/03/26 03:56:39;;;;;;;71.13;26.33;;;3.10;93.60;;;;;;5010291;28;20029;-78
2022/03/26 03:59:05;;;;;;;66.57;26.80;;;3.00;93.60;;;;;;5004617;28;20073;-78
2022/03/26 04:01:31;;;;;;;66.47;26.37;;;3.00;93.80;;;;;;5011787;28;20053;-79
2022/03/26 04:03:57;;;;;;;60.13;23.97;;;3.10;93.30;;;;;;5011254;28;20032;-79
2022/03/26 04:06:23;;;;;;;63.37;23.67;;;3.10;93.30;;;;;;5011862;28;20026;-79
2022/03/26 04:08:49;;;;;;;60.70;25.40;;;3.00;93.20;;;;;;5023664;23;20139;-76
2022/03/26 04:11:15;;;;;;;63.53;25.30;;;3.00;93.40;;;;;;5011139;28;20045;-76
2022/03/26 04:13:40;;;;;;;73.70;27.80;;;3.00;93.60;;;;;;5011502;28;20108;-76
2022/03/26 04:16:06;;;;;;;67.77;25.93;;;3.00;93.70;;;;;;5008376;28;20121;-76
2022/03/26 04:18:32;;;;;;;66.80;24.20;;;3.00;93.70;;;;;;4991344;28;20030;-77
2022/03/26 04:20:58;;;;;;;64.13;26.10;;;3.00;93.60;;;;;;4991690;28;20027;-76
2022/03/26 04:23:24;;;;;;;63.53;26.83;;;3.00;94.00;;;;;;4991189;28;20030;-76
2022/03/26 04:25:50;;;;;;;74.47;26.13;;;2.90;93.60;;;;;;4991542;28;20033;-76
2022/03/26 04:28:16;;;;;;;60.67;24.50;;;2.80;94.00;;;;;;4974150;28;20081;-77
2022/03/26 04:30:41;;;;;;;60.53;24.37;;;2.80;94.60;;;;;;4991634;28;20019;-76
2022/03/26 04:33:07;;;;;;;65.70;25.53;;;2.90;94.30;;;;;;4991646;28;20398;-76
2022/03/26 04:35:34;;;;;;;64.53;25.30;;;2.80;94.10;;;;;;4992017;28;20030;-76
2022/03/26 04:38:00;;;;;;;66.53;24.83;;;2.80;95.10;;;;;;4990507;28;20015;-76
2022/03/26 04:40:26;;;;;;;61.40;25.10;;;2.80;95.00;;;;;;4991347;28;20054;-77
2022/03/26 04:42:53;;;;;;;60.90;24.77;;;2.70;94.90;;;;;;4991886;28;20026;-76
2022/03/26 04:45:19;;;;;;;72.23;24.57;;;2.70;94.90;;;;;;4991627;28;20030;-76
2022/03/26 04:47:45;;;;;;;66.10;24.50;;;2.70;95.20;;;;;;4991183;28;20023;-76
2022/03/26 04:50:11;;;;;;;75.97;29.97;;;2.70;95.10;;;;;;4991476;28;20092;-76
2022/03/26 04:52:38;;;;;;;64.50;26.30;;;2.70;94.80;;;;;;4991035;28;20427;-76
2022/03/26 04:55:08;;;;;;;66.73;26.07;;;2.70;95.00;;;;;;4991005;28;20071;-76
2022/03/26 04:57:51;;;;;;;61.30;24.40;;;2.70;95.00;;;;;;4991140;28;20069;-76
2022/03/26 05:00:18;;;;;;;69.17;25.20;;;2.70;94.80;;;;;;4991058;28;20034;-76
2022/03/26 05:02:44;;;;;;;65.97;23.97;;;2.60;95.30;;;;;;4991574;28;20109;-76
2022/03/26 05:05:11;;;;;;;66.43;25.70;;;2.70;95.10;;;;;;4991218;28;20137;-77
2022/03/26 05:07:46;;;;;;;59.77;23.03;;;2.70;94.70;;;;;;4991288;28;20073;-76
2022/03/26 05:10:23;;;;;;;73.33;27.03;;;2.60;94.90;;;;;;5018338;23;20104;-79
2022/03/26 05:12:51;;;;;;;58.50;22.43;;;2.50;94.90;;;;;;5005141;28;20034;-79
2022/03/26 05:15:21;;;;;;;69.07;24.27;;;2.50;95.40;;;;;;5010808;28;20041;-79
2022/03/26 05:17:47;;;;;;;75.10;26.23;;;2.40;95.10;;;;;;5010587;28;20385;-79
2022/03/26 05:20:13;;;;;;;73.43;25.97;;;2.30;95.30;;;;;;5010943;28;20025;-79
2022/03/26 05:22:45;;;;;;;68.00;24.07;;;2.40;95.50;;;;;;4986142;28;20034;-79
2022/03/26 05:25:11;;;;;;;69.43;24.77;;;2.30;95.60;;;;;;5010466;28;20025;-78
2022/03/26 05:27:42;;;;;;;64.97;25.67;;;2.30;96.10;;;;;;5010567;28;20030;-79
2022/03/26 05:30:09;;;;;;;67.50;25.83;;;2.20;95.80;;;;;;5010650;28;20026;-79
2022/03/26 05:32:34;;;;;;;74.40;25.93;;;2.20;95.80;;;;;;5010912;28;20018;-80
2022/03/26 05:35:00;;;;;;;70.30;25.67;;;2.20;96.00;;;;;;5010495;28;20096;-79
2022/03/26 05:37:26;;;;;;;77.43;27.53;;;2.30;95.80;;;;;;4993168;28;20108;-80
2022/03/26 05:39:52;;;;;;;84.80;28.87;;;2.20;95.50;;;;;;4992567;28;20029;-80
2022/03/26 05:42:18;;;;;;;87.87;30.00;;;2.20;95.30;;;;;;5010647;28;20022;-80
2022/03/26 05:44:44;;;;;;;90.63;29.90;;;2.10;95.70;;;;;;5010768;28;20026;-79
2022/03/26 05:47:10;;;;;;;79.77;27.13;;;2.10;95.30;;;;;;5010454;28;20041;-79
2022/03/26 05:49:36;;;;;;;84.70;27.93;;;2.10;96.50;;;;;;4994809;28;20479;-79
2022/03/26 05:52:02;;;;;;;92.10;30.67;;;2.10;96.60;;;;;;5014060;28;20474;-80
2022/03/26 05:54:28;;;;;;;84.93;28.60;;;2.10;96.20;;;;;;5013719;28;20029;-80
2022/03/26 05:56:54;;;;;;;80.13;26.80;;;2.10;95.80;;;;;;5014044;28;20026;-80
2022/03/26 05:59:22;;;;;;;81.13;29.47;;;2.00;95.80;;;;;;5013695;28;20030;-80
2022/03/26 06:01:48;;;;;;;90.33;30.23;;;2.00;96.10;;;;;;5014251;28;20084;-79
2022/03/26 06:04:15;;;;;;;87.27;29.63;;;2.10;96.60;;;;;;4996382;28;20018;-80
2022/03/26 06:06:41;;;;;;;87.00;29.30;;;2.10;96.30;;;;;;5013763;28;20021;-80
2022/03/26 06:09:08;;;;;;;82.93;28.20;;;2.20;96.40;;;;;;5005042;23;20070;-76
2022/03/26 06:11:33;;;;;;;91.07;28.40;;;2.20;96.70;;;;;;4994182;28;20053;-76
2022/03/26 06:14:00;;;;;;;80.57;28.00;;;2.20;96.40;;;;;;4993844;28;20038;-76
2022/03/26 06:16:26;;;;;;;89.30;28.17;;;2.20;96.10;;;;;;4993762;28;20018;-76
2022/03/26 06:18:52;;;;;;;81.67;28.77;;;2.20;96.40;;;;;;4992461;28;20034;-76
2022/03/26 06:21:18;;;;;;;88.03;29.80;;;2.30;96.50;;;;;;4994073;28;20057;-76
2022/03/26 06:23:44;;;;;;;82.30;28.90;;;2.30;96.40;;;;;;4988526;28;20034;-76
2022/03/26 06:26:10;;;;;;;87.97;29.90;;;2.40;96.50;;;;;;4990967;28;20053;-76
2022/03/26 06:28:37;;;;;;;68.13;25.27;;;2.40;96.60;;;;;;4993704;28;20451;-76
2022/03/26 06:31:03;;;;;;;84.77;27.57;;;2.50;96.40;;;;;;4994085;28;20027;-76
2022/03/26 06:33:29;;;;;;;82.57;28.60;;;2.50;96.30;;;;;;4994209;28;20084;-76
2022/03/26 06:35:54;;;;;;;88.17;29.17;;;2.60;96.80;;;;;;4993725;28;20046;-76
2022/03/26 06:38:20;;;;;;;84.20;26.73;;;2.70;96.50;;;;;;4992907;28;20110;-76
2022/03/26 06:40:46;;;;;;;82.03;28.87;;;2.80;96.30;;;;;;4993154;28;20038;-76
2022/03/26 06:43:12;;;;;;;75.83;27.57;;;2.90;96.10;;;;;;4993577;28;20022;-76
2022/03/26 06:45:38;;;;;;;79.17;28.90;;;3.00;95.90;;;;;;4993562;28;20548;-76
2022/03/26 06:48:04;;;;;;;74.80;28.60;;;3.10;96.00;;;;;;4993589;28;20018;-77
2022/03/26 06:50:29;;;;;;;85.53;29.70;;;3.20;96.30;;;;;;4993444;28;20030;-77
2022/03/26 06:52:55;;;;;;;80.57;29.60;;;3.40;96.00;;;;;;4993311;28;20053;-76
2022/03/26 06:55:22;;;;;;;82.03;27.07;;;3.50;95.90;;;;;;4992837;28;20497;-77
2022/03/26 06:57:51;;;;;;;82.77;27.67;;;3.60;95.60;;;;;;4993067;28;20494;-76
2022/03/26 07:00:18;;;;;;;88.33;30.80;;;3.70;95.40;;;;;;4992126;28;20026;-77
2022/03/26 07:02:44;;;;;;;73.80;28.13;;;3.90;95.80;;;;;;4993247;28;20045;-76
2022/03/26 07:05:11;;;;;;;78.47;27.03;;;4.10;95.30;;;;;;4992828;28;20024;-76
2022/03/26 07:07:37;;;;;;;83.67;27.67;;;4.20;95.20;;;;;;4992801;28;20539;-77
2022/03/26 07:10:05;;;;;;;77.20;27.87;;;4.30;95.10;;;;;;5016980;23;20073;-80
2022/03/26 07:12:30;;;;;;;82.47;29.57;;;4.40;94.70;;;;;;5012282;28;20120;-80
2022/03/26 07:14:57;;;;;;;72.07;26.70;;;4.70;95.50;;;;;;5012259;28;20486;-79
2022/03/26 07:17:23;;;;;;;79.03;27.20;;;4.90;94.80;;;;;;4995148;28;20109;-79
2022/03/26 07:19:49;;;;;;;76.87;27.73;;;5.10;95.00;;;;;;4994851;28;20061;-80
2022/03/26 07:22:14;;;;;;;82.80;29.87;;;5.30;94.70;;;;;;5012328;28;20029;-80
2022/03/26 07:24:40;;;;;;;83.20;28.30;;;5.60;94.40;;;;;;5011950;28;20090;-79
2022/03/26 07:27:06;;;;;;;87.50;28.43;;;5.90;93.90;;;;;;5011937;28;20046;-79
2022/03/26 07:29:38;;;;;;;84.00;28.90;;;6.20;93.30;;;;;;5012131;28;20030;-80
2022/03/26 07:32:05;;;;;;;72.65;26.90;;;6.50;92.50;;;;;;5012018;28;20113;-80
2022/03/26 07:34:31;;;;;;;77.57;27.47;;;6.80;91.80;;;;;;5012130;28;20044;-79
2022/03/26 07:36:57;;;;;;;79.10;27.20;;;7.20;90.20;;;;;;5011385;28;20017;-79
2022/03/26 07:39:22;;;;;;;70.63;26.88;;;7.50;89.10;;;;;;5011543;28;20052;-80
2022/03/26 07:41:48;;;;;;;73.50;27.20;;;7.80;88.00;;;;;;5011776;28;20061;-79
2022/03/26 07:44:14;;;;;;;72.25;26.70;;;8.00;88.00;;;;;;5009840;28;20030;-80
2022/03/26 07:46:39;;;;;;;68.90;26.40;;;8.40;85.00;;;;;;5010020;28;20382;-77
2022/03/26 07:49:05;;;;;;;60.83;23.67;;;8.50;84.60;;;;;;5011047;28;20053;-77
2022/03/26 07:51:31;;;;;;;66.38;26.10;;;8.70;84.50;;;;;;5010164;28;20022;-77
2022/03/26 07:53:57;;;;;;;74.18;27.30;;;8.80;85.10;;;;;;5009907;28;20073;-77
2022/03/26 07:56:23;;;;;;;66.13;25.83;;;9.00;82.00;;;;;;4993194;28;20053;-79
2022/03/26 07:58:49;;;;;;;61.47;25.48;;;9.20;82.40;;;;;;5010263;28;20048;-77
2022/03/26 08:01:15;;;;;;;62.53;26.23;;;9.30;80.90;;;;;;5009958;28;20030;-77
2022/03/26 08:03:41;;;;;;;65.65;25.85;;;9.50;80.10;;;;;;5012047;28;20034;-80
2022/03/26 08:06:07;;;;;;;63.20;26.13;;;9.70;80.20;;;;;;5011528;28;20104;-79
2022/03/26 08:11:03;;;;;;;69.53;26.13;;;9.90;80.20;;;;;;4973117;28;20050;-76
2022/03/26 08:13:28;;;;;;;66.95;27.90;;;10.10;78.40;;;;;;4970658;28;20031;-76
2022/03/26 08:15:54;;;;;;;64.97;26.15;;;10.20;79.40;;;;;;4970626;28;20030;-76
2022/03/26 08:18:20;;;;;;;62.13;25.02;;;10.30;78.30;;;;;;4971475;28;20038;-77
2022/03/26 08:20:46;;;;;;;63.75;25.73;;;10.60;77.00;;;;;;4965172;28;20026;-76
2022/03/26 08:23:12;;;;;;;68.85;27.20;;;10.70;74.60;;;;;;4971680;28;20034;-79
2022/03/26 08:28:22;;;;;;;66.88;27.15;;;11.10;75.30;;;;;;4971768;28;20111;-79
2022/03/26 08:30:47;;;;;;;67.38;27.00;;;11.20;74.40;;;;;;4970837;28;20030;-79
2022/03/26 08:33:13;;;;;;;65.07;25.80;;;11.40;72.90;;;;;;4970288;28;20085;-79
2022/03/26 08:35:40;;;;;;;58.92;24.65;;;11.60;74.30;;;;;;4954531;28;20042;-78
2022/03/26 08:38:07;;;;;;;63.63;25.58;;;11.80;71.50;;;;;;4970483;28;20027;-78
2022/03/26 08:40:33;;;;;;;67.00;26.60;;;12.00;72.00;;;;;;4971737;28;20031;-78
2022/03/26 08:42:59;;;;;;;59.63;25.65;;;12.30;72.60;;;;;;4970483;28;20035;-79
2022/03/26 08:45:29;;;;;;;61.58;24.77;;;12.50;69.10;;;;;;4972080;28;20027;-79
2022/03/26 08:47:54;;;;;;;53.67;24.45;;;12.90;70.40;;;;;;4971830;28;20034;-78
2022/03/26 08:50:21;;;;;;;56.53;24.92;;;13.60;67.70;;;;;;4971851;28;20023;-79
2022/03/26 08:52:49;;;;;;;56.55;24.30;;;14.20;63.30;;;;;;4969783;28;20042;-80
2022/03/26 08:55:16;;;;;;;55.75;23.65;;;14.60;61.60;;;;;;4971445;28;20050;-79
2022/03/26 08:57:42;;;;;;;51.03;23.02;;;15.00;60.40;;;;;;4971034;28;20479;-79
2022/03/26 09:00:09;;;;;;;52.92;23.25;;;15.20;59.60;;;;;;4971769;28;20066;-79
2022/03/26 09:02:36;;;;;;;52.15;23.40;;;15.20;59.20;;;;;;4970156;28;20110;-79
2022/03/26 09:05:02;;;;;;;47.05;22.27;;;15.50;60.40;;;;;;4970993;28;20023;-79
2022/03/26 09:07:27;;;;;;;49.42;22.77;;;15.60;57.00;;;;;;4971592;28;20035;-79
2022/03/26 09:09:53;;;;;;;49.72;22.13;;;15.90;56.40;;;;;;4994119;22;20053;-78
2022/03/26 09:12:19;;;;;;;48.13;20.77;;;16.20;58.80;;;;;;4974203;28;20031;-78
2022/03/26 09:14:45;;;;;;;45.67;20.50;;;16.40;52.10;;;;;;4991728;28;20121;-75
2022/03/26 09:17:10;;;;;;;45.67;22.38;;;16.60;51.40;;;;;;4991438;28;20161;-79
2022/03/26 09:19:37;;;;;;;48.83;22.77;;;16.80;51.70;;;;;;4991667;28;20021;-79
2022/03/26 09:22:03;;;;;;;43.95;22.52;;;17.20;48.70;;;;;;4991838;28;20040;-79
2022/03/26 09:24:28;;;;;;;45.90;20.80;;;17.30;48.80;;;;;;4993572;28;20394;-79
2022/03/26 09:26:54;;;;;;;36.92;18.73;;;17.20;47.30;;;;;;4995827;28;20018;-79
2022/03/26 09:29:20;;;;;;;46.15;19.83;;;18.00;50.10;;;;;;4995959;28;20044;-79
2022/03/26 09:31:46;;;;;;;49.20;20.33;;;18.30;44.20;;;;;;4978088;28;20023;-79
2022/03/26 09:34:12;;;;;;;37.92;18.63;;;18.70;44.40;;;;;;4995546;28;20061;-79
2022/03/26 09:36:38;;;;;;;48.22;20.48;;;19.40;40.60;;;;;;4995057;28;20430;-79
2022/03/26 09:39:04;;;;;;;40.92;19.20;;;19.50;41.50;;;;;;4994750;28;20109;-80
2022/03/26 09:41:31;;;;;;;42.92;21.25;;;20.40;41.80;;;;;;4994768;28;20045;-79
2022/03/26 09:43:57;;;;;;;40.45;18.35;;;20.70;39.10;;;;;;4995540;28;20054;-79
2022/03/26 09:46:24;;;;;;;41.78;20.27;;;21.80;39.60;;;;;;4999950;28;20026;-79
2022/03/26 09:48:50;;;;;;;42.85;19.83;;;21.20;36.20;;;;;;4994267;28;20036;-79
2022/03/26 09:51:21;;;;;;;39.83;20.08;;;21.60;38.20;;;;;;4995083;28;20022;-78
2022/03/26 09:53:50;;;;;;;40.10;19.20;;;21.90;35.30;;;;;;4989858;28;20514;-79
2022/03/26 09:56:16;;;;;;;35.60;18.52;;;23.80;34.90;;;;;;4993625;28;20022;-79
2022/03/26 09:58:42;;;;;;;41.30;19.73;;;25.30;35.20;;;;;;4994975;28;20593;-79
2022/03/26 10:01:08;;;;;;;34.85;18.27;;;25.50;31.30;;;;;;4994086;28;20069;-79
2022/03/26 10:03:35;;;;;;;38.78;19.27;;;24.90;30.50;;;;;;4994586;28;20023;-79
2022/03/26 10:06:07;;;;;;;39.80;18.85;;;26.30;29.00;;;;;;4996772;28;20030;-79
2022/03/26 10:11:21;;;;;;;39.25;18.70;;;26.20;28.30;;;;;;4990214;28;20514;-82
2022/03/26 10:13:48;;;;;;;35.55;18.48;;;25.80;29.30;;;;;;4993080;28;20034;-81
2022/03/26 10:16:19;;;;;;;38.47;18.02;;;26.10;28.50;;;;;;4991627;28;20030;-81
2022/03/26 10:18:48;;;;;;;36.55;18.23;;;26.40;28.90;;;;;;4993198;28;20412;-81
2022/03/26 10:21:18;;;;;;;35.22;18.52;;;27.00;27.20;;;;;;4993300;28;20026;-82
2022/03/26 10:23:49;;;;;;;36.50;18.25;;;27.50;26.60;;;;;;4993527;28;20023;-80
2022/03/26 10:26:23;;;;;;;32.15;18.70;;;27.30;27.50;;;;;;4994987;28;20030;-81
2022/03/26 10:28:57;;;;;;;42.70;18.65;;;27.40;25.80;;;;;;4993621;28;20046;-80
2022/03/26 10:34:15;;;;;;;38.97;19.45;;;26.80;26.50;;;;;;4992882;28;20072;-81
2022/03/26 10:36:43;;;;;;;32.07;17.33;;;26.90;27.40;;;;;;4989354;28;20019;-81
2022/03/26 10:39:20;;;;;;;32.53;16.58;;;26.40;26.80;;;;;;4992113;28;20598;-81
2022/03/26 10:41:47;;;;;;;32.45;18.70;;;27.50;26.60;;;;;;4987492;28;20391;-80
2022/03/26 10:44:18;;;;;;;29.92;17.48;;;27.70;25.00;;;;;;4993511;28;20030;-81
2022/03/26 10:46:59;;;;;;;32.67;18.33;;;27.40;26.00;;;;;;4992976;28;20018;-81
2022/03/26 10:49:31;;;;;;;34.70;19.10;;;27.00;26.10;;;;;;4992639;28;20023;-80
2022/03/26 10:52:05;;;;;;;37.13;18.60;;;26.50;27.00;;;;;;4993009;28;20118;-81
2022/03/26 10:54:32;;;;;;;34.72;17.73;;;26.70;26.20;;;;;;4992237;28;20033;-80
2022/03/26 10:57:00;;;;;;;34.28;17.67;;;26.80;26.70;;;;;;4991957;28;20054;-80
2022/03/26 10:59:27;;;;;;;31.55;16.88;;;27.00;26.30;;;;;;4993014;28;20109;-81
2022/03/26 11:01:53;;;;;;;35.25;17.48;;;28.20;28.20;;;;;;4992959;28;20548;-81
2022/03/26 11:04:19;;;;;;;34.88;18.50;;;28.60;25.10;;;;;;4993311;28;20026;-81
2022/03/26 11:06:47;;;;;;;35.35;17.65;;;28.40;25.00;;;;;;4992926;28;20138;-79
2022/03/26 11:09:15;;;;;;;33.55;17.35;;;27.80;25.00;;;;;;5000725;23;20042;-81
2022/03/26 11:11:42;;;;;;;35.92;17.75;;;27.30;24.10;;;;;;4958622;28;20035;-83
2022/03/26 11:14:14;;;;;;;32.67;17.95;;;27.30;24.10;;;;;;4954625;28;20491;-80
2022/03/26 11:16:39;;;;;;;31.05;17.67;;;26.20;24.90;;;;;;4953499;28;20050;-80
2022/03/26 11:19:41;;;;;;;34.70;18.35;;;26.80;25.60;;;;;;4954377;28;20668;-80
2022/03/26 11:22:25;;;;;;;32.38;16.92;;;27.20;25.40;;;;;;4952161;28;20023;-81
2022/03/26 11:25:13;;;;;;;35.67;18.48;;;27.70;24.40;;;;;;4952801;28;20622;-80
2022/03/26 11:28:16;;;;;;;36.97;18.50;;;27.10;25.70;;;;;;4954655;28;20019;-79
2022/03/26 11:30:54;;;;;;;39.00;20.02;;;27.90;24.30;;;;;;4948599;28;20023;-80
2022/03/26 11:33:20;;;;;;;34.42;18.42;;;27.30;25.10;;;;;;4960808;28;20018;-80
2022/03/26 11:35:58;;;;;;;33.42;19.15;;;27.90;24.10;;;;;;4954284;28;20039;-80
2022/03/26 11:38:27;;;;;;;36.42;18.88;;;28.20;25.90;;;;;;4954100;28;20027;-80
2022/03/26 11:40:55;;;;;;;36.13;18.38;;;28.70;24.10;;;;;;4958621;28;20020;-79
2022/03/26 11:43:44;;;;;;;33.60;18.13;;;30.00;23.30;;;;;;4947848;28;20082;-78
2022/03/26 11:52:13;;;;;;;38.50;19.10;;;30.90;23.20;;;;;;4951867;28;20472;-79
2022/03/26 11:54:39;;;;;;;32.45;18.90;;;30.30;22.20;;;;;;4954243;28;20024;-79
2022/03/26 11:57:23;;;;;;;32.80;17.23;;;31.20;22.50;;;;;;4954165;28;20472;-79
2022/03/26 11:59:49;;;;;;;38.70;19.05;;;30.70;22.00;;;;;;4948422;28;20023;-81
2022/03/26 12:02:27;;;;;;;37.58;18.95;;;30.30;22.50;;;;;;4954493;28;20058;-83
2022/03/26 12:04:53;;;;;;;34.85;17.08;;;30.70;22.40;;;;;;4954051;28;20039;-77
2022/03/26 12:07:22;;;;;;;35.03;18.35;;;31.50;22.60;;;;;;4954247;28;20486;-77
2022/03/26 12:10:02;;;;;;;31.55;17.30;;;32.30;21.90;;;;;;4981563;22;20053;-82
2022/03/26 12:12:51;;;;;;;31.13;16.70;;;31.70;21.40;;;;;;4985318;28;20447;-82
2022/03/26 12:15:17;;;;;;;30.25;17.48;;;30.60;21.70;;;;;;4986313;28;20602;-81
2022/03/26 12:17:45;;;;;;;30.65;17.80;;;28.90;23.10;;;;;;4991819;28;20058;-80
2022/03/26 12:20:23;;;;;;;33.10;18.45;;;30.00;24.10;;;;;;4991736;28;20041;-80
2022/03/26 12:23:06;;;;;;;31.75;17.63;;;29.60;22.40;;;;;;4992123;28;20034;-82
2022/03/26 12:25:46;;;;;;;33.17;18.55;;;29.60;22.10;;;;;;4991160;28;20057;-82
2022/03/26 12:28:16;;;;;;;32.10;18.27;;;29.20;22.50;;;;;;4990680;28;20549;-80
2022/03/26 12:30:51;;;;;;;30.60;17.50;;;29.90;23.10;;;;;;4991683;28;20487;-81
2022/03/26 12:33:17;;;;;;;32.42;18.88;;;31.90;23.40;;;;;;4991585;28;20018;-80
2022/03/26 12:35:45;;;;;;;31.95;17.52;;;31.60;21.70;;;;;;4991089;28;20034;-79
2022/03/26 12:38:11;;;;;;;28.15;16.42;;;32.50;21.40;;;;;;4991316;28;20410;-79
2022/03/26 12:40:38;;;;;;;30.05;16.48;;;32.90;19.40;;;;;;4991124;28;20049;-80
2022/03/26 12:43:08;;;;;;;31.65;17.35;;;32.60;20.00;;;;;;4991352;28;20019;-84
2022/03/26 12:45:34;;;;;;;31.48;16.73;;;32.80;19.00;;;;;;4990983;28;20030;-81
2022/03/26 12:48:00;;;;;;;34.03;17.48;;;33.10;20.00;;;;;;4991044;28;20062;-80
2022/03/26 12:50:27;;;;;;;30.85;16.13;;;33.60;20.00;;;;;;4991123;28;20104;-80
2022/03/26 12:52:52;;;;;;;28.08;17.40;;;32.50;20.20;;;;;;4990905;28;20119;-81
2022/03/26 12:55:19;;;;;;;30.38;18.30;;;32.90;21.00;;;;;;4990823;28;20045;-80